createdAt,value
2022-08-18T00:02:21.233Z,22.77
2022-08-18T00:04:53.504Z,22.73
2022-08-18T00:07:32.172Z,22.68
2022-08-18T00:10:01.127Z,22.66
2022-08-18T00:12:34.740Z,22.63
2022-08-18T00:15:04.665Z,22.57
2022-08-18T00:17:34.071Z,22.53
2022-08-18T00:20:01.199Z,22.51
2022-08-18T00:22:28.498Z,22.50
2022-08-18T00:24:57.659Z,22.46
2022-08-18T00:27:29.179Z,22.44
2022-08-18T00:30:00.931Z,22.41
2022-08-18T00:32:36.678Z,22.36
2022-08-18T00:35:36.039Z,22.33
2022-08-18T00:38:06.319Z,22.28
2022-08-18T00:40:44.830Z,22.26
2022-08-18T00:43:23.377Z,22.24
2022-08-18T00:45:50.616Z,22.24
2022-08-18T00:48:18.828Z,22.21
2022-08-18T00:50:54.332Z,22.19
2022-08-18T00:53:29.401Z,22.14
2022-08-18T00:56:08.633Z,22.12
2022-08-18T00:58:47.261Z,22.10
2022-08-18T01:01:16.828Z,22.09
2022-08-18T01:03:52.016Z,22.08
2022-08-18T01:06:40.789Z,22.06
2022-08-18T01:09:09.477Z,22.01
2022-08-18T01:11:39.184Z,21.98
2022-08-18T01:14:09.621Z,21.95
2022-08-18T01:16:57.519Z,21.77
2022-08-18T01:19:45.987Z,21.75
2022-08-18T01:22:49.452Z,21.70
2022-08-18T01:25:39.856Z,21.69
2022-08-18T01:28:07.730Z,21.64
2022-08-18T01:30:51.264Z,21.66
2022-08-18T01:33:19.110Z,21.66
2022-08-18T01:35:49.332Z,21.62
2022-08-18T01:38:20.925Z,21.54
2022-08-18T01:41:24.378Z,21.41
2022-08-18T01:43:36.646Z,21.46
2022-08-18T01:46:04.278Z,21.49
2022-08-18T01:48:36.549Z,21.44
2022-08-18T01:51:08.212Z,21.43
2022-08-18T01:53:37.955Z,21.42
2022-08-18T01:56:06.346Z,21.43
2022-08-18T01:58:35.569Z,21.42
2022-08-18T02:01:03.922Z,21.38
2022-08-18T02:03:46.767Z,21.39
2022-08-18T02:06:18.508Z,21.31
2022-08-18T02:08:59.471Z,21.28
2022-08-18T02:11:26.659Z,21.29
2022-08-18T02:13:53.625Z,21.23
2022-08-18T02:16:20.652Z,21.25
2022-08-18T02:18:48.881Z,21.25
2022-08-18T02:21:20.039Z,21.15
2022-08-18T02:23:53.214Z,21.18
2022-08-18T02:26:22.162Z,21.07
2022-08-18T02:28:49.557Z,21.11
2022-08-18T02:31:21.232Z,21.13
2022-08-18T02:33:51.933Z,21.08
2022-08-18T02:36:21.459Z,21.02
2022-08-18T02:38:56.787Z,20.93
2022-08-18T02:41:29.253Z,21.00
2022-08-18T02:43:57.883Z,21.00
2022-08-18T02:46:29.331Z,20.99
2022-08-18T02:48:57.765Z,21.00
2022-08-18T02:51:25.688Z,20.99
2022-08-18T02:53:54.243Z,20.94
2022-08-18T02:56:32.918Z,20.86
2022-08-18T02:59:14.829Z,20.79
2022-08-18T03:01:46.047Z,20.78
2022-08-18T03:04:16.444Z,20.84
2022-08-18T03:06:45.396Z,20.84
2022-08-18T03:09:16.356Z,20.86
2022-08-18T03:11:44.530Z,20.88
2022-08-18T03:14:13.108Z,20.87
2022-08-18T03:16:52.733Z,20.85
2022-08-18T03:19:28.132Z,20.90
2022-08-18T03:21:58.212Z,20.91
2022-08-18T03:24:31.434Z,20.91
2022-08-18T03:26:59.829Z,20.89
2022-08-18T03:29:32.066Z,20.90
2022-08-18T03:32:01.723Z,20.87
2022-08-18T03:34:29.748Z,20.85
2022-08-18T03:36:56.881Z,20.81
2022-08-18T03:39:25.030Z,20.81
2022-08-18T03:42:01.088Z,20.78
2022-08-18T03:44:33.217Z,20.75
2022-08-18T03:47:03.103Z,20.72
2022-08-18T03:49:33.381Z,20.70
2022-08-18T03:52:00.838Z,20.66
2022-08-18T03:54:29.424Z,20.64
2022-08-18T03:56:56.438Z,20.60
2022-08-18T03:59:26.104Z,20.56
2022-08-18T04:01:55.288Z,20.54
2022-08-18T04:04:27.260Z,20.51
2022-08-18T04:07:07.136Z,20.50
2022-08-18T04:09:36.102Z,20.46
2022-08-18T04:12:16.236Z,20.45
2022-08-18T04:14:48.048Z,20.44
2022-08-18T04:17:16.873Z,20.44
2022-08-18T04:19:43.968Z,20.44
2022-08-18T04:22:11.249Z,20.44
2022-08-18T04:24:45.390Z,20.42
2022-08-18T04:27:12.757Z,20.42
2022-08-18T04:29:39.804Z,20.41
2022-08-18T04:32:07.019Z,20.40
2022-08-18T04:34:34.884Z,20.39
2022-08-18T04:37:02.420Z,20.38
2022-08-18T04:39:30.544Z,20.38
2022-08-18T04:41:59.168Z,20.37
2022-08-18T04:44:26.445Z,20.37
2022-08-18T04:46:54.370Z,20.37
2022-08-18T04:49:26.248Z,20.36
2022-08-18T04:52:36.137Z,20.36
2022-08-18T04:55:01.728Z,20.36
2022-08-18T04:57:33.625Z,20.37
2022-08-18T05:00:01.211Z,20.36
2022-08-18T05:02:28.365Z,20.37
2022-08-18T05:04:55.412Z,20.37
2022-08-18T05:07:23.034Z,20.37
2022-08-18T05:09:54.032Z,20.37
2022-08-18T05:12:22.817Z,20.38
2022-08-18T05:14:56.727Z,20.37
2022-08-18T05:17:29.090Z,20.36
2022-08-18T05:19:59.923Z,20.38
2022-08-18T05:22:30.383Z,20.37
2022-08-18T05:24:58.175Z,20.38
2022-08-18T05:27:25.180Z,20.38
2022-08-18T05:29:52.149Z,20.41
2022-08-18T05:32:38.334Z,20.39
2022-08-18T05:35:15.067Z,20.42
2022-08-18T05:38:22.144Z,20.45
2022-08-18T05:41:14.341Z,20.44
2022-08-18T05:43:51.303Z,20.42
2022-08-18T05:46:24.676Z,20.42
2022-08-18T05:48:51.731Z,20.42
2022-08-18T05:51:41.276Z,20.41
2022-08-18T05:54:28.433Z,20.40
2022-08-18T05:57:02.271Z,20.42
2022-08-18T05:59:37.146Z,20.41
2022-08-18T06:02:33.304Z,20.44
2022-08-18T06:05:06.071Z,20.46
2022-08-18T06:07:53.120Z,20.45
2022-08-18T06:10:21.009Z,20.46
2022-08-18T06:12:59.857Z,20.48
2022-08-18T06:16:09.497Z,20.49
2022-08-18T06:19:16.021Z,20.50
2022-08-18T06:21:59.375Z,20.51
2022-08-18T06:24:56.177Z,20.54
2022-08-18T06:27:31.036Z,20.55
2022-08-18T06:30:17.526Z,20.57
2022-08-18T06:33:09.247Z,20.61
2022-08-18T06:35:51.947Z,20.61
2022-08-18T06:38:40.167Z,20.64
2022-08-18T06:41:40.960Z,20.68
2022-08-18T06:44:44.155Z,20.70
2022-08-18T06:47:29.464Z,20.70
2022-08-18T06:50:26.100Z,20.71
2022-08-18T06:52:56.794Z,20.75
2022-08-18T06:55:38.863Z,20.75
2022-08-18T06:58:27.689Z,20.75
2022-08-18T07:00:59.017Z,20.80
2022-08-18T07:04:04.432Z,20.77
2022-08-18T07:06:32.015Z,20.78
2022-08-18T07:09:20.683Z,20.78
2022-08-18T07:12:05.432Z,20.79
2022-08-18T07:14:57.992Z,20.80
2022-08-18T07:17:43.699Z,20.76
2022-08-18T07:20:25.497Z,20.75
2022-08-18T07:23:08.298Z,20.77
2022-08-18T07:25:43.003Z,20.79
2022-08-18T07:28:37.314Z,20.83
2022-08-18T07:31:36.198Z,20.89
2022-08-18T07:34:25.661Z,20.93
2022-08-18T07:37:14.472Z,20.91
2022-08-18T07:40:07.351Z,20.93
2022-08-18T07:43:01.268Z,20.95
2022-08-18T07:45:45.162Z,20.97
2022-08-18T07:48:38.734Z,21.01
2022-08-18T07:51:22.299Z,21.03
2022-08-18T07:54:48.941Z,21.06
2022-08-18T07:57:43.632Z,21.08
2022-08-18T08:00:58.716Z,21.09
2022-08-18T08:03:31.665Z,21.11
2022-08-18T08:06:03.078Z,21.12
2022-08-18T08:08:42.009Z,21.10
2022-08-18T08:11:53.051Z,21.09
2022-08-18T08:14:45.768Z,21.09
2022-08-18T08:17:53.996Z,21.07
2022-08-18T08:20:52.621Z,21.05
2022-08-18T08:23:52.136Z,21.01
2022-08-18T08:26:51.878Z,20.99
2022-08-18T08:29:54.594Z,20.97
2022-08-18T08:32:32.568Z,20.97
2022-08-18T08:35:47.353Z,20.96
2022-08-18T08:38:42.752Z,20.95
2022-08-18T08:41:28.271Z,20.94
2022-08-18T08:44:58.205Z,20.95
2022-08-18T08:47:32.994Z,20.94
2022-08-18T08:50:11.523Z,20.95
2022-08-18T08:52:56.870Z,20.94
2022-08-18T08:55:31.134Z,20.94
2022-08-18T08:58:26.452Z,20.95
2022-08-18T09:00:55.049Z,20.95
2022-08-18T09:03:52.472Z,20.88
2022-08-18T09:06:32.608Z,20.81
2022-08-18T09:09:49.884Z,20.71
2022-08-18T09:12:51.618Z,20.66
2022-08-18T09:16:27.666Z,20.63
2022-08-18T09:19:31.199Z,20.64
2022-08-18T09:22:16.005Z,20.68
2022-08-18T09:24:51.112Z,20.70
2022-08-18T09:28:07.107Z,20.76
2022-08-18T09:30:43.616Z,20.80
2022-08-18T09:33:34.180Z,20.87
2022-08-18T09:36:25.937Z,20.99
2022-08-18T09:39:23.200Z,21.15
2022-08-18T09:41:58.229Z,21.33
2022-08-18T09:45:01.476Z,21.46
2022-08-18T09:47:30.346Z,21.59
2022-08-18T09:50:06.544Z,21.72
2022-08-18T09:52:33.369Z,21.87
2022-08-18T09:55:27.061Z,22.04
2022-08-18T09:58:17.939Z,22.18
2022-08-18T10:00:45.419Z,22.26
2022-08-18T10:03:26.044Z,22.36
2022-08-18T10:06:12.901Z,22.44
2022-08-18T10:09:17.670Z,22.51
2022-08-18T10:12:48.936Z,22.71
2022-08-18T10:15:45.000Z,22.82
2022-08-18T10:18:53.884Z,22.99
2022-08-18T10:24:38.085Z,23.19
2022-08-18T10:27:53.974Z,23.24
2022-08-18T10:30:34.543Z,23.27
2022-08-18T10:33:18.381Z,23.30
2022-08-18T10:35:59.720Z,23.34
2022-08-18T10:38:49.395Z,23.36
2022-08-18T10:41:31.972Z,23.39
2022-08-18T10:44:20.927Z,23.42
2022-08-18T10:46:49.987Z,23.44
2022-08-18T10:49:26.382Z,23.49
2022-08-18T10:52:07.777Z,23.53
2022-08-18T10:55:10.190Z,23.59
2022-08-18T10:58:31.191Z,23.64
2022-08-18T11:01:32.911Z,23.65
2022-08-18T11:04:34.160Z,23.72
2022-08-18T11:07:09.689Z,23.80
2022-08-18T11:13:13.461Z,24.02
2022-08-18T11:16:10.288Z,24.10
2022-08-18T11:18:58.240Z,24.14
2022-08-18T11:21:42.727Z,24.19
2022-08-18T11:24:17.678Z,24.22
2022-08-18T11:26:52.903Z,24.19
2022-08-18T11:29:28.707Z,24.20
2022-08-18T11:32:03.921Z,24.16
2022-08-18T11:34:39.202Z,24.13
2022-08-18T11:37:49.507Z,24.08
2022-08-18T11:41:08.898Z,24.06
2022-08-18T11:43:40.816Z,24.00
2022-08-18T11:46:24.077Z,23.97
2022-08-18T11:48:56.971Z,23.95
2022-08-18T11:51:32.197Z,23.90
2022-08-18T11:54:04.839Z,23.91
2022-08-18T11:56:36.009Z,23.88
2022-08-18T11:59:52.631Z,23.89
2022-08-18T12:02:18.693Z,23.88
2022-08-18T12:04:52.919Z,23.89
2022-08-18T12:07:35.724Z,23.89
2022-08-18T12:10:30.055Z,23.92
2022-08-18T12:13:00.705Z,23.97
2022-08-18T12:18:28.398Z,24.03
2022-08-18T12:20:59.380Z,24.04
2022-08-18T12:23:38.509Z,24.09
2022-08-18T12:26:06.033Z,24.17
2022-08-18T12:28:53.097Z,24.21
2022-08-18T12:31:20.141Z,24.25
2022-08-18T12:34:00.693Z,24.36
2022-08-18T12:36:43.650Z,24.52
2022-08-18T12:39:10.704Z,24.69
2022-08-18T12:41:37.916Z,24.84
2022-08-18T12:44:05.052Z,25.00
2022-08-18T12:46:42.760Z,25.19
2022-08-18T12:49:19.286Z,25.37
2022-08-18T12:51:50.141Z,25.54
2022-08-18T12:54:18.640Z,25.69
2022-08-18T12:56:51.168Z,25.83
2022-08-18T12:59:18.861Z,25.95
2022-08-18T13:01:46.740Z,26.05
2022-08-18T13:04:15.592Z,26.17
2022-08-18T13:07:00.217Z,26.30
2022-08-18T13:09:35.170Z,26.45
2022-08-18T13:12:17.171Z,26.57
2022-08-18T13:14:45.710Z,26.71
2022-08-18T13:17:32.338Z,26.82
2022-08-18T13:20:14.858Z,26.98
2022-08-18T13:22:42.371Z,27.13
2022-08-18T13:25:32.256Z,27.24
2022-08-18T13:28:01.728Z,27.33
2022-08-18T13:30:31.409Z,27.39
2022-08-18T13:33:05.975Z,27.47
2022-08-18T13:35:52.329Z,27.49
2022-08-18T13:38:25.969Z,27.54
2022-08-18T13:40:58.151Z,27.45
2022-08-18T13:43:32.321Z,27.41
2022-08-18T13:46:02.087Z,27.37
2022-08-18T13:48:30.452Z,27.38
2022-08-18T13:51:01.108Z,27.39
2022-08-18T13:53:31.321Z,27.37
2022-08-18T13:55:59.589Z,27.43
2022-08-18T13:58:30.015Z,27.48
2022-08-18T14:01:39.529Z,27.54
2022-08-18T14:03:50.709Z,27.61
2022-08-18T14:06:22.550Z,27.66
2022-08-18T14:08:52.971Z,27.67
2022-08-18T14:11:33.051Z,27.71
2022-08-18T14:14:02.089Z,27.73
2022-08-18T14:16:29.349Z,27.73
2022-08-18T14:19:17.785Z,27.76
2022-08-18T14:22:11.506Z,27.86
2022-08-18T14:25:00.386Z,27.92
2022-08-18T14:27:37.537Z,27.91
2022-08-18T14:30:09.719Z,27.99
2022-08-18T14:32:48.727Z,28.05
2022-08-18T14:36:03.837Z,28.10
2022-08-18T14:38:08.083Z,28.16
2022-08-18T14:40:43.815Z,28.21
2022-08-18T14:43:14.649Z,28.28
2022-08-18T14:45:47.500Z,28.30
2022-08-18T14:48:22.946Z,28.33
2022-08-18T14:50:55.334Z,28.36
2022-08-18T14:53:28.065Z,28.34
2022-08-18T14:55:57.550Z,28.32
2022-08-18T14:58:30.039Z,28.35
2022-08-18T15:01:00.592Z,28.34
2022-08-18T15:03:31.805Z,28.32
2022-08-18T15:06:04.799Z,28.31
2022-08-18T15:08:35.245Z,28.29
2022-08-18T15:11:11.303Z,28.28
2022-08-18T15:13:45.106Z,28.24
2022-08-18T15:16:16.648Z,28.20
2022-08-18T15:18:47.551Z,28.16
2022-08-18T15:21:35.075Z,28.17
2022-08-18T15:24:25.751Z,28.14
2022-08-18T15:26:57.965Z,28.03
2022-08-18T15:29:31.349Z,28.01
2022-08-18T15:32:05.907Z,27.95
2022-08-18T15:34:47.085Z,27.93
2022-08-18T15:37:24.225Z,27.89
2022-08-18T15:40:21.918Z,27.83
2022-08-18T15:43:10.122Z,27.82
2022-08-18T15:45:56.456Z,27.75
2022-08-18T15:48:28.305Z,27.69
2022-08-18T15:50:55.956Z,27.59
2022-08-18T15:53:29.970Z,27.51
2022-08-18T15:55:57.802Z,27.51
2022-08-18T15:58:26.781Z,27.48
2022-08-18T16:00:58.913Z,27.46
2022-08-18T16:03:26.169Z,27.43
2022-08-18T16:05:55.463Z,27.46
2022-08-18T16:08:25.468Z,27.38
2022-08-18T16:10:54.073Z,27.35
2022-08-18T16:13:22.082Z,27.30
2022-08-18T16:15:49.861Z,27.21
2022-08-18T16:18:21.000Z,27.19
2022-08-18T16:20:48.393Z,27.14
2022-08-18T16:23:19.973Z,27.10
2022-08-18T16:25:47.001Z,27.08
2022-08-18T16:28:13.971Z,27.05
2022-08-18T16:30:41.556Z,26.99
2022-08-18T16:33:08.921Z,26.93
2022-08-18T16:35:37.338Z,26.84
2022-08-18T16:38:09.345Z,26.83
2022-08-18T16:40:37.483Z,26.80
2022-08-18T16:43:05.869Z,26.74
2022-08-18T16:45:36.065Z,26.70
2022-08-18T16:48:03.791Z,26.63
2022-08-18T16:50:30.789Z,26.54
2022-08-18T16:52:58.027Z,26.47
2022-08-18T16:55:25.179Z,26.39
2022-08-18T16:58:15.254Z,26.36
2022-08-18T17:01:02.781Z,26.33
2022-08-18T17:03:48.124Z,26.19
2022-08-18T17:06:18.644Z,26.15
2022-08-18T17:08:45.706Z,26.12
2022-08-18T17:11:18.193Z,26.05
2022-08-18T17:13:48.394Z,25.99
2022-08-18T17:16:18.202Z,25.94
2022-08-18T17:18:45.436Z,25.90
2022-08-18T17:21:20.398Z,25.82
2022-08-18T17:23:51.787Z,25.73
2022-08-18T17:26:59.664Z,25.67
2022-08-18T17:29:43.932Z,25.64
2022-08-18T17:35:21.071Z,25.52
2022-08-18T17:38:08.231Z,25.50
2022-08-18T17:40:51.519Z,25.44
2022-08-18T17:43:23.164Z,25.42
2022-08-18T17:46:01.230Z,25.41
2022-08-18T17:48:32.572Z,25.36
2022-08-18T17:51:55.099Z,25.32
2022-08-18T17:54:51.404Z,25.29
2022-08-18T17:57:29.660Z,25.25
2022-08-18T18:00:17.257Z,25.19
2022-08-18T18:02:46.203Z,25.15
2022-08-18T18:05:18.644Z,25.13
2022-08-18T18:07:51.379Z,25.12
2022-08-18T18:11:03.917Z,25.09
2022-08-18T18:13:32.956Z,25.07
2022-08-18T18:16:35.283Z,25.04
2022-08-18T18:19:07.637Z,25.01
2022-08-18T18:21:56.599Z,24.99
2022-08-18T18:24:32.757Z,24.97
2022-08-18T18:26:59.833Z,24.91
2022-08-18T18:29:35.916Z,24.88
2022-08-18T18:32:25.011Z,24.83
2022-08-18T18:35:27.537Z,24.78
2022-08-18T18:38:01.214Z,24.75
2022-08-18T18:40:55.724Z,24.70
2022-08-18T18:43:43.501Z,24.66
2022-08-18T18:46:18.809Z,24.64
2022-08-18T18:49:18.889Z,24.59
2022-08-18T18:52:19.188Z,24.54
2022-08-18T18:55:01.480Z,24.50
2022-08-18T18:57:54.247Z,24.45
2022-08-18T19:00:33.198Z,24.43
2022-08-18T19:03:18.790Z,24.39
2022-08-18T19:06:06.248Z,24.33
2022-08-18T19:08:51.826Z,24.27
2022-08-18T19:11:30.396Z,24.20
2022-08-18T19:14:07.728Z,24.13
2022-08-18T19:16:45.542Z,24.05
2022-08-18T19:19:38.071Z,24.01
2022-08-18T19:22:36.483Z,23.98
2022-08-18T19:25:55.591Z,23.94
2022-08-18T19:29:12.231Z,23.92
2022-08-18T19:31:40.869Z,23.88
2022-08-18T19:34:31.049Z,23.83
2022-08-18T19:37:31.016Z,23.80
2022-08-18T19:40:33.538Z,23.76
2022-08-18T19:43:12.497Z,23.70
2022-08-18T19:45:57.165Z,23.67
2022-08-18T19:48:37.307Z,23.63
2022-08-18T19:51:27.532Z,23.60
2022-08-18T19:54:23.582Z,23.58
2022-08-18T19:57:53.162Z,23.54
2022-08-18T20:00:48.915Z,23.49
2022-08-18T20:03:39.869Z,23.47
2022-08-18T20:06:42.359Z,23.44
2022-08-18T20:09:55.560Z,23.39
2022-08-18T20:13:13.035Z,23.36
2022-08-18T20:16:24.937Z,23.34
2022-08-18T20:18:56.227Z,23.31
2022-08-18T20:21:41.422Z,23.27
2022-08-18T20:24:51.088Z,23.23
2022-08-18T20:27:37.627Z,23.21
2022-08-18T20:30:39.659Z,23.18
2022-08-18T20:33:29.851Z,23.14
2022-08-18T20:36:36.879Z,23.11
2022-08-18T20:39:40.914Z,23.08
2022-08-18T20:42:34.400Z,23.05
2022-08-18T20:45:14.047Z,23.04
2022-08-18T20:47:55.160Z,23.01
2022-08-18T20:50:43.456Z,22.98
2022-08-18T20:53:50.222Z,22.96
2022-08-18T20:56:48.322Z,22.94
2022-08-18T20:59:28.629Z,22.91
2022-08-18T21:02:03.699Z,22.89
2022-08-18T21:04:49.300Z,22.85
2022-08-18T21:07:36.135Z,22.83
2022-08-18T21:10:30.234Z,22.81
2022-08-18T21:13:04.660Z,22.80
2022-08-18T21:15:38.150Z,22.78
2022-08-18T21:18:22.682Z,22.76
2022-08-18T21:20:52.176Z,22.75
2022-08-18T21:23:35.964Z,22.73
2022-08-18T21:26:22.100Z,22.69
2022-08-18T21:28:54.607Z,22.67
2022-08-18T21:31:42.542Z,22.64
2022-08-18T21:34:30.117Z,22.60
2022-08-18T21:37:00.488Z,22.56
2022-08-18T21:39:27.455Z,22.50
2022-08-18T21:41:57.824Z,22.49
2022-08-18T21:44:43.550Z,22.47
2022-08-18T21:47:31.784Z,22.44
2022-08-18T21:50:14.848Z,22.45
2022-08-18T21:52:55.689Z,22.44
2022-08-18T21:55:36.313Z,22.45
2022-08-18T21:58:16.391Z,22.44
2022-08-18T22:01:04.864Z,22.40
2022-08-18T22:03:34.305Z,22.37
2022-08-18T22:06:34.686Z,22.35
2022-08-18T22:09:29.414Z,22.34
2022-08-18T22:12:43.132Z,22.34
2022-08-18T22:15:32.368Z,22.31
2022-08-18T22:18:02.430Z,22.31
2022-08-18T22:20:55.018Z,22.30
2022-08-18T22:24:04.428Z,22.28
2022-08-18T22:26:37.398Z,22.27
2022-08-18T22:29:13.402Z,22.25
2022-08-18T22:31:48.591Z,22.24
2022-08-18T22:34:27.754Z,22.25
2022-08-18T22:37:08.318Z,22.25
2022-08-18T22:39:53.340Z,22.24
2022-08-18T22:42:26.427Z,22.25
2022-08-18T22:44:54.205Z,22.26
2022-08-18T22:47:21.253Z,22.26
2022-08-18T22:49:48.388Z,22.26
2022-08-18T22:52:34.092Z,22.25
2022-08-18T22:55:06.867Z,22.24
2022-08-18T22:57:38.884Z,22.24
2022-08-18T23:00:15.561Z,22.21
2022-08-18T23:02:43.237Z,22.21
2022-08-18T23:05:11.927Z,22.20
2022-08-18T23:07:38.947Z,22.20
2022-08-18T23:10:13.875Z,22.18
2022-08-18T23:12:44.403Z,22.17
2022-08-18T23:15:11.720Z,22.16
2022-08-18T23:17:40.903Z,22.16
2022-08-18T23:20:17.928Z,22.15
2022-08-18T23:22:47.994Z,22.14
2022-08-18T23:25:15.582Z,22.12
2022-08-18T23:27:42.871Z,22.13
2022-08-18T23:30:10.957Z,22.12
2022-08-18T23:32:37.989Z,22.12
2022-08-18T23:35:05.692Z,22.11
2022-08-18T23:37:32.920Z,22.11
2022-08-18T23:40:00.020Z,22.11
2022-08-18T23:42:27.067Z,22.11
2022-08-18T23:44:54.087Z,22.12
2022-08-18T23:47:21.276Z,22.12
2022-08-18T23:49:48.478Z,22.11
2022-08-18T23:52:15.572Z,22.10
2022-08-18T23:54:42.565Z,22.10
2022-08-18T23:57:09.516Z,22.09
2022-08-18T23:59:36.597Z,22.09
